createdAt,value
2023-05-18T00:00:35.841Z,4.03
2023-05-18T00:03:04.044Z,3.58
2023-05-18T00:05:34.169Z,3.80
2023-05-18T00:08:01.669Z,3.95
2023-05-18T00:10:28.749Z,3.90
2023-05-18T00:12:55.817Z,3.55
2023-05-18T00:15:22.756Z,4.47
2023-05-18T00:17:50.655Z,3.55
2023-05-18T00:20:18.590Z,3.60
2023-05-18T00:22:48.185Z,3.95
2023-05-18T00:25:15.045Z,4.00
2023-05-18T00:27:41.910Z,4.10
2023-05-18T00:30:09.486Z,4.15
2023-05-18T00:32:36.390Z,4.40
2023-05-18T00:35:03.589Z,4.53
2023-05-18T00:37:30.656Z,4.28
2023-05-18T00:39:57.494Z,4.15
2023-05-18T00:42:24.359Z,4.50
2023-05-18T00:44:51.329Z,3.95
2023-05-18T00:47:20.906Z,4.55
2023-05-18T00:49:47.988Z,3.83
2023-05-18T00:52:16.269Z,4.47
2023-05-18T00:54:43.573Z,4.70
2023-05-18T00:57:10.659Z,3.65
2023-05-18T00:59:37.794Z,4.20
2023-05-18T01:02:05.654Z,4.75
2023-05-18T01:04:32.531Z,4.47
2023-05-18T01:07:06.793Z,4.15
2023-05-18T01:09:34.738Z,4.32
2023-05-18T01:12:17.675Z,5.20
2023-05-18T01:14:57.838Z,4.70
2023-05-18T01:17:40.190Z,4.68
2023-05-18T01:20:29.360Z,4.57
2023-05-18T01:23:17.757Z,4.22
2023-05-18T01:26:05.895Z,4.32
2023-05-18T01:28:33.612Z,4.53
2023-05-18T01:31:01.637Z,4.05
2023-05-18T01:33:28.786Z,4.32
2023-05-18T01:35:55.711Z,4.45
2023-05-18T01:38:28.414Z,4.45
2023-05-18T01:41:15.058Z,4.72
2023-05-18T01:43:55.727Z,4.03
2023-05-18T01:46:36.531Z,4.40
2023-05-18T01:49:32.726Z,4.07
2023-05-18T01:52:06.480Z,3.88
2023-05-18T01:54:36.280Z,4.45
2023-05-18T01:57:08.330Z,4.63
2023-05-18T01:59:36.913Z,4.32
2023-05-18T02:02:05.233Z,4.60
2023-05-18T02:04:32.428Z,4.20
2023-05-18T02:06:59.361Z,4.00
2023-05-18T02:09:26.504Z,3.95
2023-05-18T02:11:53.361Z,4.05
2023-05-18T02:14:20.182Z,4.20
2023-05-18T02:16:52.892Z,4.53
2023-05-18T02:19:22.134Z,4.43
2023-05-18T02:21:49.106Z,4.38
2023-05-18T02:24:17.737Z,4.18
2023-05-18T02:26:44.750Z,4.88
2023-05-18T02:29:14.490Z,4.15
2023-05-18T02:31:41.881Z,4.38
2023-05-18T02:34:09.162Z,4.07
2023-05-18T02:36:42.816Z,4.43
2023-05-18T02:39:10.491Z,4.15
2023-05-18T02:41:37.476Z,4.20
2023-05-18T02:44:05.268Z,4.53
2023-05-18T02:46:32.712Z,4.32
2023-05-18T02:48:59.630Z,4.28
2023-05-18T02:51:26.815Z,4.20
2023-05-18T02:53:53.911Z,4.85
2023-05-18T02:56:21.423Z,4.50
2023-05-18T02:58:58.268Z,4.20
2023-05-18T03:01:37.899Z,3.97
2023-05-18T03:04:04.849Z,4.35
2023-05-18T03:06:32.464Z,4.40
2023-05-18T03:08:59.356Z,4.45
2023-05-18T03:11:36.957Z,5.15
2023-05-18T03:14:04.364Z,4.38
2023-05-18T03:16:31.255Z,5.00
2023-05-18T03:18:59.170Z,4.82
2023-05-18T03:21:33.824Z,4.57
2023-05-18T03:24:01.120Z,4.75
2023-05-18T03:26:32.593Z,4.43
2023-05-18T03:29:01.172Z,4.57
2023-05-18T03:31:28.214Z,4.15
2023-05-18T03:33:57.250Z,4.43
2023-05-18T03:36:26.390Z,4.55
2023-05-18T03:38:53.222Z,4.38
2023-05-18T03:41:22.004Z,4.35
2023-05-18T03:43:49.256Z,4.47
2023-05-18T03:46:16.359Z,4.70
2023-05-18T03:48:43.252Z,4.97
2023-05-18T03:51:10.134Z,4.63
2023-05-18T03:53:37.041Z,4.57
2023-05-18T03:56:03.968Z,4.70
2023-05-18T03:58:30.804Z,4.40
2023-05-18T04:00:58.746Z,4.65
2023-05-18T04:03:27.178Z,5.03
2023-05-18T04:05:56.010Z,5.10
2023-05-18T04:08:25.547Z,4.43
2023-05-18T04:10:52.786Z,4.80
2023-05-18T04:13:19.617Z,4.68
2023-05-18T04:15:47.665Z,5.00
2023-05-18T04:18:14.588Z,4.70
2023-05-18T04:20:42.740Z,4.60
2023-05-18T04:23:10.176Z,5.00
2023-05-18T04:25:39.411Z,4.47
2023-05-18T04:28:08.269Z,5.20
2023-05-18T04:30:37.449Z,4.88
2023-05-18T04:33:06.717Z,4.80
2023-05-18T04:35:33.860Z,5.72
2023-05-18T04:38:01.028Z,5.47
2023-05-18T04:40:28.031Z,5.00
2023-05-18T04:42:55.274Z,4.85
2023-05-18T04:45:27.055Z,5.50
2023-05-18T04:47:56.406Z,5.05
2023-05-18T04:50:26.428Z,5.22
2023-05-18T04:52:53.720Z,5.55
2023-05-18T04:55:26.319Z,5.25
2023-05-18T04:57:56.982Z,5.03
2023-05-18T05:00:31.400Z,5.25
2023-05-18T05:02:59.052Z,5.20
2023-05-18T05:05:27.201Z,5.00
2023-05-18T05:07:54.667Z,5.05
2023-05-18T05:10:22.417Z,4.78
2023-05-18T05:12:50.223Z,5.43
2023-05-18T05:15:17.842Z,4.57
2023-05-18T05:17:46.394Z,5.10
2023-05-18T05:20:13.609Z,5.40
2023-05-18T05:22:41.129Z,4.15
2023-05-18T05:25:10.812Z,4.20
2023-05-18T05:27:38.562Z,4.63
2023-05-18T05:30:06.103Z,4.10
2023-05-18T05:32:36.632Z,4.43
2023-05-18T05:35:05.670Z,4.22
2023-05-18T05:37:33.025Z,4.13
2023-05-18T05:39:59.968Z,3.63
2023-05-18T05:42:29.973Z,3.72
2023-05-18T05:44:57.186Z,3.78
2023-05-18T05:47:26.061Z,4.32
2023-05-18T05:49:53.305Z,3.38
2023-05-18T05:52:20.405Z,3.55
2023-05-18T05:54:48.009Z,3.90
2023-05-18T05:57:15.462Z,4.88
2023-05-18T05:59:42.626Z,3.45
2023-05-18T06:02:09.625Z,3.75
2023-05-18T06:04:36.707Z,3.58
2023-05-18T06:07:04.710Z,3.95
2023-05-18T06:09:31.782Z,3.10
2023-05-18T06:11:58.641Z,3.08
2023-05-18T06:14:27.504Z,3.00
2023-05-18T06:16:57.000Z,2.95
2023-05-18T06:19:24.840Z,3.25
2023-05-18T06:21:52.967Z,3.00
2023-05-18T06:24:19.838Z,3.40
2023-05-18T06:27:12.835Z,3.22
2023-05-18T06:30:00.000Z,3.15
2023-05-18T06:32:37.893Z,2.67
2023-05-18T06:35:06.342Z,3.40
2023-05-18T06:37:33.996Z,3.08
2023-05-18T06:40:01.295Z,2.83
2023-05-18T06:42:28.560Z,3.10
2023-05-18T06:45:16.160Z,3.40
2023-05-18T06:47:50.863Z,3.03
2023-05-18T06:50:17.828Z,3.55
2023-05-18T06:52:45.009Z,3.08
2023-05-18T06:55:12.129Z,3.38
2023-05-18T06:57:39.440Z,3.00
2023-05-18T07:00:12.475Z,3.42
2023-05-18T07:02:40.831Z,2.80
2023-05-18T07:05:09.214Z,2.90
2023-05-18T07:07:37.880Z,3.53
2023-05-18T07:10:05.374Z,2.97
2023-05-18T07:12:32.238Z,3.33
2023-05-18T07:14:59.096Z,3.38
2023-05-18T07:17:26.005Z,3.78
2023-05-18T07:19:52.873Z,4.07
2023-05-18T07:22:19.720Z,3.22
2023-05-18T07:24:46.651Z,3.53
2023-05-18T07:27:13.504Z,3.50
2023-05-18T07:29:40.351Z,3.72
2023-05-18T07:32:07.228Z,3.55
2023-05-18T07:34:34.128Z,2.72
2023-05-18T07:37:01.103Z,2.97
2023-05-18T07:39:29.532Z,3.33
2023-05-18T07:41:56.891Z,3.70
2023-05-18T07:44:24.417Z,3.50
2023-05-18T07:46:51.543Z,3.47
2023-05-18T07:49:18.642Z,3.00
2023-05-18T07:51:45.581Z,3.40
2023-05-18T07:54:12.866Z,3.30
2023-05-18T07:56:40.754Z,3.38
2023-05-18T07:59:08.420Z,3.40
2023-05-18T08:01:35.745Z,2.95
2023-05-18T08:04:02.769Z,3.20
2023-05-18T08:06:29.688Z,3.50
2023-05-18T08:08:59.719Z,3.20
2023-05-18T08:11:26.639Z,3.20
2023-05-18T08:13:53.527Z,3.13
2023-05-18T08:16:20.526Z,3.15
2023-05-18T08:18:47.479Z,3.53
2023-05-18T08:21:14.456Z,3.35
2023-05-18T08:23:41.566Z,3.50
2023-05-18T08:26:09.509Z,3.10
2023-05-18T08:28:37.296Z,3.10
2023-05-18T08:31:04.240Z,2.92
2023-05-18T08:33:32.669Z,3.40
2023-05-18T08:35:59.536Z,2.92
2023-05-18T08:38:26.528Z,3.10
2023-05-18T08:41:21.034Z,3.88
2023-05-18T08:43:53.649Z,3.30
2023-05-18T08:46:21.996Z,3.20
2023-05-18T08:48:52.086Z,2.95
2023-05-18T08:51:20.858Z,2.90
2023-05-18T08:53:54.315Z,3.13
2023-05-18T08:56:23.929Z,3.72
2023-05-18T08:58:52.474Z,3.42
2023-05-18T09:01:20.006Z,3.58
2023-05-18T09:03:49.395Z,3.17
2023-05-18T09:06:16.885Z,3.25
2023-05-18T09:08:44.743Z,3.15
2023-05-18T09:11:13.461Z,3.55
2023-05-18T09:13:40.534Z,3.97
2023-05-18T09:16:08.172Z,3.65
2023-05-18T09:18:35.288Z,3.00
2023-05-18T09:21:02.490Z,3.88
2023-05-18T09:23:29.535Z,3.45
2023-05-18T09:25:58.994Z,3.08
2023-05-18T09:28:40.974Z,3.17
2023-05-18T09:31:10.017Z,3.00
2023-05-18T09:33:38.500Z,4.32
2023-05-18T09:36:07.438Z,3.22
2023-05-18T09:38:38.653Z,3.90
2023-05-18T09:41:11.044Z,2.63
2023-05-18T09:43:38.378Z,2.95
2023-05-18T09:46:09.076Z,3.10
2023-05-18T09:48:37.523Z,3.42
2023-05-18T09:51:07.820Z,3.35
2023-05-18T09:53:37.449Z,3.95
2023-05-18T09:56:07.185Z,3.92
2023-05-18T09:58:34.624Z,3.58
2023-05-18T10:01:02.423Z,3.08
2023-05-18T10:03:37.606Z,3.03
2023-05-18T10:06:14.573Z,2.78
2023-05-18T10:08:41.628Z,2.58
2023-05-18T10:11:08.996Z,3.35
2023-05-18T10:13:35.894Z,3.10
2023-05-18T10:16:05.754Z,3.30
2023-05-18T10:18:35.823Z,2.75
2023-05-18T10:21:04.714Z,2.78
2023-05-18T10:23:32.895Z,2.70
2023-05-18T10:26:00.327Z,2.90
2023-05-18T10:28:40.353Z,2.58
2023-05-18T10:31:09.039Z,2.80
2023-05-18T10:33:37.404Z,2.55
2023-05-18T10:36:05.821Z,2.70
2023-05-18T10:38:34.439Z,2.78
2023-05-18T10:41:01.898Z,2.80
2023-05-18T10:43:29.017Z,2.70
2023-05-18T10:46:01.329Z,2.60
2023-05-18T10:48:29.826Z,2.35
2023-05-18T10:50:58.024Z,2.78
2023-05-18T10:53:32.143Z,2.45
2023-05-18T10:55:59.686Z,2.63
2023-05-18T10:58:27.958Z,2.88
2023-05-18T11:00:58.061Z,2.92
2023-05-18T11:03:27.142Z,2.65
2023-05-18T11:06:08.876Z,2.58
2023-05-18T11:08:51.310Z,2.70
2023-05-18T11:11:19.853Z,2.38
2023-05-18T11:13:51.301Z,2.67
2023-05-18T11:16:19.530Z,2.67
2023-05-18T11:18:51.026Z,2.92
2023-05-18T11:21:42.499Z,2.45
2023-05-18T11:24:19.808Z,2.50
2023-05-18T11:26:55.598Z,3.17
2023-05-18T11:29:35.834Z,3.15
2023-05-18T11:32:04.862Z,3.08
2023-05-18T11:34:51.203Z,3.45
2023-05-18T11:37:41.277Z,2.50
2023-05-18T11:40:13.751Z,2.63
2023-05-18T11:42:40.753Z,2.55
2023-05-18T11:45:08.983Z,2.75
2023-05-18T11:47:36.852Z,2.50
2023-05-18T11:50:07.991Z,2.65
2023-05-18T11:52:51.409Z,2.38
2023-05-18T11:57:50.072Z,2.30
2023-05-18T12:00:17.518Z,2.83
2023-05-18T12:02:49.012Z,2.15
2023-05-18T12:05:17.075Z,2.20
2023-05-18T12:07:45.067Z,2.20
2023-05-18T12:10:17.194Z,1.90
2023-05-18T12:12:47.608Z,2.00
2023-05-18T12:15:16.481Z,2.70
2023-05-18T12:17:44.821Z,2.33
2023-05-18T12:20:12.511Z,2.25
2023-05-18T12:22:46.938Z,2.15
2023-05-18T12:25:15.944Z,2.75
2023-05-18T12:27:51.847Z,2.90
2023-05-18T12:30:24.407Z,2.72
2023-05-18T12:33:10.792Z,3.15
2023-05-18T12:35:40.940Z,2.28
2023-05-18T12:38:14.110Z,2.17
2023-05-18T12:43:13.785Z,1.90
2023-05-18T12:45:49.416Z,2.10
2023-05-18T12:48:16.577Z,2.65
2023-05-18T12:50:50.889Z,1.98
2023-05-18T12:53:18.913Z,2.33
2023-05-18T12:56:02.136Z,2.22
2023-05-18T12:58:29.355Z,1.90
2023-05-18T13:00:57.357Z,2.17
2023-05-18T13:03:34.246Z,2.00
2023-05-18T13:06:06.244Z,1.95
2023-05-18T13:08:43.161Z,2.08
2023-05-18T13:11:19.550Z,1.90
2023-05-18T13:14:07.096Z,1.73
2023-05-18T13:16:37.996Z,1.77
2023-05-18T13:19:12.052Z,2.35
2023-05-18T13:21:41.440Z,1.95
2023-05-18T13:24:14.535Z,2.45
2023-05-18T13:26:53.587Z,1.98
2023-05-18T13:29:24.213Z,1.60
2023-05-18T13:31:51.588Z,2.75
2023-05-18T13:34:21.212Z,1.80
2023-05-18T13:36:51.040Z,2.15
2023-05-18T13:39:22.154Z,1.88
2023-05-18T13:41:52.335Z,2.13
2023-05-18T13:44:19.476Z,2.50
2023-05-18T13:46:46.392Z,2.30
2023-05-18T13:49:22.061Z,2.00
2023-05-18T13:51:49.078Z,2.20
2023-05-18T13:54:18.036Z,3.58
2023-05-18T13:56:45.052Z,4.68
2023-05-18T13:59:19.149Z,3.33
2023-05-18T14:01:58.179Z,3.13
2023-05-18T14:04:25.833Z,2.38
2023-05-18T14:07:42.643Z,2.08
2023-05-18T14:10:00.202Z,2.20
2023-05-18T14:12:27.064Z,2.90
2023-05-18T14:14:54.033Z,2.30
2023-05-18T14:17:21.014Z,2.33
2023-05-18T14:19:47.914Z,1.70
2023-05-18T14:22:16.458Z,2.20
2023-05-18T14:24:43.440Z,3.67
2023-05-18T14:27:11.097Z,2.78
2023-05-18T14:29:37.915Z,2.55
2023-05-18T14:32:05.101Z,2.55
2023-05-18T14:34:31.977Z,2.00
2023-05-18T14:36:58.842Z,3.47
2023-05-18T14:39:25.655Z,6.10
2023-05-18T14:41:52.673Z,2.83
2023-05-18T14:44:19.541Z,2.42
2023-05-18T14:46:46.671Z,2.10
2023-05-18T14:49:13.646Z,2.90
2023-05-18T14:51:40.511Z,2.40
2023-05-18T14:54:07.458Z,1.88
2023-05-18T14:56:34.371Z,2.50
2023-05-18T14:59:01.257Z,2.47
2023-05-18T15:01:28.219Z,2.70
2023-05-18T15:03:55.348Z,3.08
2023-05-18T15:06:22.296Z,2.40
2023-05-18T15:08:49.461Z,1.90
2023-05-18T15:11:16.358Z,2.08
2023-05-18T15:13:44.128Z,1.92
2023-05-18T15:16:11.861Z,1.60
2023-05-18T15:18:38.798Z,1.60
2023-05-18T15:21:05.841Z,1.67
2023-05-18T15:23:32.756Z,1.88
2023-05-18T15:25:59.966Z,2.60
2023-05-18T15:28:26.931Z,2.30
2023-05-18T15:30:54.550Z,1.95
2023-05-18T15:33:21.791Z,2.42
2023-05-18T15:35:48.641Z,1.65
2023-05-18T15:38:15.680Z,2.13
2023-05-18T15:40:46.717Z,1.80
2023-05-18T15:43:13.778Z,2.72
2023-05-18T15:45:40.683Z,2.50
2023-05-18T15:48:07.823Z,2.30
2023-05-18T15:50:34.835Z,2.00
2023-05-18T15:53:01.654Z,1.80
2023-05-18T15:55:28.563Z,1.83
2023-05-18T15:57:55.700Z,1.95
2023-05-18T16:00:23.813Z,2.03
2023-05-18T16:02:50.774Z,1.88
2023-05-18T16:05:17.695Z,1.85
2023-05-18T16:07:46.152Z,1.58
2023-05-18T16:10:14.467Z,3.25
2023-05-18T16:12:41.485Z,1.63
2023-05-18T16:15:08.771Z,1.60
2023-05-18T16:17:35.697Z,2.00
2023-05-18T16:20:04.044Z,1.75
2023-05-18T16:22:31.286Z,1.80
2023-05-18T16:24:59.068Z,1.90
2023-05-18T16:27:26.147Z,1.50
2023-05-18T16:29:53.193Z,2.05
2023-05-18T16:32:20.101Z,1.63
2023-05-18T16:34:46.923Z,1.80
2023-05-18T16:37:13.992Z,1.75
2023-05-18T16:39:40.895Z,2.22
2023-05-18T16:42:09.462Z,1.77
2023-05-18T16:44:36.754Z,1.88
2023-05-18T16:47:03.652Z,1.95
2023-05-18T16:49:30.908Z,1.88
2023-05-18T16:51:57.849Z,2.03
2023-05-18T16:54:24.691Z,1.90
2023-05-18T16:56:51.988Z,2.17
2023-05-18T16:59:22.572Z,2.20
2023-05-18T17:01:49.489Z,1.70
2023-05-18T17:04:16.468Z,2.03
2023-05-18T17:06:43.501Z,1.80
2023-05-18T17:09:10.369Z,1.88
2023-05-18T17:11:37.234Z,2.10
2023-05-18T17:14:04.403Z,1.77
2023-05-18T17:16:33.036Z,2.00
2023-05-18T17:19:00.033Z,1.80
2023-05-18T17:21:28.324Z,2.30
2023-05-18T17:23:55.822Z,2.30
2023-05-18T17:26:25.014Z,2.00
2023-05-18T17:28:52.067Z,2.30
2023-05-18T17:31:18.932Z,1.75
2023-05-18T17:33:47.359Z,1.65
2023-05-18T17:36:18.266Z,2.38
2023-05-18T17:38:46.891Z,2.45
2023-05-18T17:41:13.989Z,2.15
2023-05-18T17:43:40.858Z,2.08
2023-05-18T17:46:07.751Z,2.10
2023-05-18T17:48:34.610Z,2.20
2023-05-18T17:51:01.702Z,2.10
2023-05-18T17:53:28.551Z,2.30
2023-05-18T17:55:55.584Z,2.83
2023-05-18T17:58:22.449Z,1.65
2023-05-18T18:00:49.292Z,1.98
2023-05-18T18:03:17.295Z,2.00
2023-05-18T18:05:44.421Z,2.00
2023-05-18T18:08:11.611Z,1.55
2023-05-18T18:10:38.408Z,2.08
2023-05-18T18:13:05.308Z,3.13
2023-05-18T18:15:32.235Z,2.08
2023-05-18T18:17:59.360Z,2.00
2023-05-18T18:20:26.412Z,2.00
2023-05-18T18:22:53.560Z,1.77
2023-05-18T18:25:20.465Z,1.95
2023-05-18T18:27:47.345Z,2.20
2023-05-18T18:30:14.820Z,2.22
2023-05-18T18:32:41.644Z,1.80
2023-05-18T18:35:09.079Z,3.53
2023-05-18T18:37:36.210Z,2.13
2023-05-18T18:40:04.052Z,2.15
2023-05-18T18:42:30.948Z,1.98
2023-05-18T18:44:57.840Z,2.35
2023-05-18T18:47:25.087Z,2.05
2023-05-18T18:49:51.974Z,2.05
2023-05-18T18:52:18.881Z,2.60
2023-05-18T18:54:45.770Z,1.67
2023-05-18T18:57:12.664Z,2.17
2023-05-18T18:59:39.898Z,2.20
2023-05-18T19:02:06.937Z,2.00
2023-05-18T19:04:33.916Z,1.75
2023-05-18T19:07:03.283Z,2.10
2023-05-18T19:09:36.058Z,2.83
2023-05-18T19:12:03.077Z,2.30
2023-05-18T19:14:29.914Z,3.33
2023-05-18T19:16:56.841Z,4.20
2023-05-18T19:19:23.867Z,3.70
2023-05-18T19:21:50.968Z,2.83
2023-05-18T19:24:17.847Z,3.10
2023-05-18T19:26:44.747Z,3.20
2023-05-18T19:29:11.591Z,2.35
2023-05-18T19:31:38.457Z,3.25
2023-05-18T19:34:05.372Z,4.07
2023-05-18T19:36:32.357Z,2.20
2023-05-18T19:38:59.289Z,2.22
2023-05-18T19:41:26.800Z,2.17
2023-05-18T19:43:53.711Z,2.28
2023-05-18T19:46:20.688Z,2.60
2023-05-18T19:48:47.727Z,3.17
2023-05-18T19:51:14.584Z,2.88
2023-05-18T19:53:43.121Z,2.20
2023-05-18T19:56:10.121Z,2.10
2023-05-18T19:58:37.313Z,2.58
2023-05-18T20:01:04.402Z,2.10
2023-05-18T20:03:32.350Z,2.63
2023-05-18T20:05:59.323Z,2.60
2023-05-18T20:08:27.780Z,2.30
2023-05-18T20:10:55.132Z,2.08
2023-05-18T20:13:22.893Z,1.85
2023-05-18T20:15:50.048Z,2.97
2023-05-18T20:18:16.980Z,2.22
2023-05-18T20:20:43.941Z,2.58
2023-05-18T20:23:11.717Z,2.53
2023-05-18T20:25:38.669Z,2.30
2023-05-18T20:28:08.597Z,2.92
2023-05-18T20:30:35.501Z,2.90
2023-05-18T20:33:04.727Z,2.50
2023-05-18T20:35:32.738Z,2.55
2023-05-18T20:38:00.152Z,2.67
2023-05-18T20:40:30.837Z,2.67
2023-05-18T20:42:59.038Z,2.55
2023-05-18T20:45:27.100Z,3.38
2023-05-18T20:47:54.018Z,5.38
2023-05-18T20:50:23.022Z,5.05
2023-05-18T20:52:51.022Z,4.65
2023-05-18T20:55:18.859Z,4.40
2023-05-18T20:57:49.049Z,3.45
2023-05-18T21:00:18.289Z,3.25
2023-05-18T21:02:45.864Z,2.92
2023-05-18T21:05:14.125Z,3.40
2023-05-18T21:07:41.083Z,3.70
2023-05-18T21:10:09.330Z,4.20
2023-05-18T21:12:36.640Z,4.88
2023-05-18T21:15:04.303Z,5.20
2023-05-18T21:17:31.839Z,4.50
2023-05-18T21:19:59.014Z,5.47
2023-05-18T21:22:25.982Z,4.15
2023-05-18T21:24:52.836Z,3.90
2023-05-18T21:27:19.862Z,3.80
2023-05-18T21:29:46.798Z,3.80
2023-05-18T21:32:13.909Z,3.63
2023-05-18T21:34:43.481Z,4.05
2023-05-18T21:37:10.845Z,3.95
2023-05-18T21:39:37.863Z,3.83
2023-05-18T21:42:04.922Z,3.38
2023-05-18T21:44:32.788Z,3.10
2023-05-18T21:46:59.714Z,2.90
2023-05-18T21:49:26.770Z,3.42
2023-05-18T21:51:53.736Z,3.10
2023-05-18T21:54:20.687Z,2.55
2023-05-18T21:56:47.705Z,2.70
2023-05-18T21:59:14.630Z,3.10
2023-05-18T22:01:41.668Z,2.58
2023-05-18T22:04:08.749Z,2.65
2023-05-18T22:06:35.737Z,2.15
2023-05-18T22:09:02.652Z,3.90
2023-05-18T22:11:29.498Z,2.42
2023-05-18T22:13:56.378Z,3.63
2023-05-18T22:16:23.371Z,3.03
2023-05-18T22:18:52.948Z,3.13
2023-05-18T22:21:20.571Z,3.13
2023-05-18T22:23:47.509Z,2.90
2023-05-18T22:26:14.431Z,2.38
2023-05-18T22:28:41.294Z,2.20
2023-05-18T22:31:08.138Z,3.45
2023-05-18T22:33:34.965Z,2.10
2023-05-18T22:36:01.832Z,2.75
2023-05-18T22:38:28.793Z,3.13
2023-05-18T22:40:55.969Z,2.22
2023-05-18T22:43:23.073Z,2.80
2023-05-18T22:45:50.239Z,2.22
2023-05-18T22:48:17.191Z,2.30
2023-05-18T22:50:44.093Z,2.88
2023-05-18T22:53:11.969Z,2.38
2023-05-18T22:55:39.170Z,2.45
2023-05-18T22:58:06.041Z,2.25
2023-05-18T23:00:33.097Z,2.45
2023-05-18T23:03:00.250Z,2.10
2023-05-18T23:05:27.719Z,2.15
2023-05-18T23:07:57.741Z,1.98
2023-05-18T23:10:26.501Z,2.25
2023-05-18T23:12:55.684Z,2.17
2023-05-18T23:15:23.136Z,1.98
2023-05-18T23:17:50.270Z,2.05
2023-05-18T23:20:17.168Z,1.98
2023-05-18T23:22:44.304Z,2.28
2023-05-18T23:25:11.295Z,2.10
2023-05-18T23:27:38.293Z,2.58
2023-05-18T23:30:05.881Z,2.40
2023-05-18T23:32:33.198Z,2.08
2023-05-18T23:35:00.505Z,2.05
2023-05-18T23:37:28.770Z,2.05
2023-05-18T23:39:56.826Z,2.22
2023-05-18T23:42:24.932Z,2.10
2023-05-18T23:44:52.043Z,2.13
2023-05-18T23:47:19.511Z,1.95
2023-05-18T23:49:47.877Z,2.20
2023-05-18T23:52:16.100Z,2.20
2023-05-18T23:54:45.573Z,2.30
2023-05-18T23:57:12.619Z,2.30
2023-05-18T23:59:40.965Z,2.10
